Observations for STANSTED AIRPORT, United Kingdom (EGSS)

EGSS 211750Z AUTO 14009KT 2400 -PL OVC002/// //////TCU 02/01 Q1007 RERA 
EGSS 211720Z AUTO 14011KT 3600 -RASN OVC002/// //////TCU 01/01 Q1007
EGSS 211650Z AUTO 14012KT 3600 -RA OVC002 01/01 Q1008 RERA  
EGSS 211620Z AUTO 14013KT 3700 RA OVC002 01/01 Q1008
EGSS 211550Z AUTO 14013KT 5000 -RA OVC002/// //////TCU 01/00 Q1009 RERA 
EGSS 211520Z AUTO 14015KT 4900 RA OVC002 00/00 Q1009
EGSS 211450Z AUTO 14015KT 5000 -RADZ OVC002 00/00 Q1010 RERA REDZ   
EGSS 211420Z AUTO 14014KT 4300 RADZ OVC002 00/00 Q1010  
EGSS 211350Z 14012KT 3300 -SN OVC002 00/00 Q1011
EGSS 211320Z AUTO 14010KT 1200 R22/1000 -SN OVC002 00/M00 Q1012 
EGSS 211250Z 14010KT 1600 R22/1300 -SN OVC002 00/M00 Q1013 RESN 
EGSS 211220Z 14009KT 0800 R22/0800 SN BKN002 OVC005 00/M00 Q1013
EGSS 211150Z 14007KT 1500 R22/1100 -SN BKN002 00/M00 Q1014  
EGSS 211120Z 15008KT 2200 -SN BKN002 00/00 Q1014
EGSS 211050Z 16007KT 2400 -SN SCT002 BKN005 BKN017 00/M00 Q1015 
EGSS 211020Z AUTO 17006KT 1300 R22/1200 -SN BKN019 BKN027 OVC032 00/M00 Q1015   
EGSS 210950Z AUTO 17005KT 1300 R22/1300 -SN SCT001 BKN014 OVC029 00/M00 Q1015 REFZRA
EGSS 210920Z AUTO 19004KT 1000 FZRA BKN001 OVC025 M00/M00 Q1015 
EGSS 210850Z AUTO 18004KT 1600 BR BKN001 M00/M01 Q1015  
EGSS 210820Z AUTO 22005KT 1000 R22/P1500 BR OVC001 M00/M01 Q1015
EGSS 210750Z AUTO 23004KT 1200 R22/P1500 BR BKN001 M00/M01 Q1015
EGSS 210720Z 23003KT 1400 R22/P1500 BR SCT001 OVC002 M00/M01 Q1014  
EGSS 210650Z AUTO 28003KT 1700 BR OVC002 M00/M01 Q1014  
EGSS 210620Z AUTO 31002KT 1700 BR OVC002 M00/M01 Q1014  
EGSS 210550Z AUTO 32002KT 1600 BR OVC002 M00/M01 Q1014  
EGSS 210520Z AUTO VRB03KT 1500 BR OVC002 M00/M01 Q1014  
EGSS 210450Z AUTO 30004KT 270V340 0800 R22/P1500 FZFG OVC002 M00/M01 Q1014  
EGSS 210420Z AUTO 30004KT 1600 BR OVC001 M01/M01 Q1014  
EGSS 210350Z AUTO VRB03KT 2300 BR BKN003 M01/M01 Q1014  
EGSS 210320Z AUTO VRB03KT 2700 BR NCD M01/M01 Q1013 
EGSS 210250Z AUTO 29004KT 2500 BR NCD M00/M01 Q1013 
EGSS 210220Z AUTO 29005KT 2300 BR FEW003 M00/M01 Q1013  
EGSS 210150Z AUTO 30004KT 1700 BR BKN002 M00/M01 Q1013  
EGSS 210120Z AUTO 28005KT 1100 R04/P1500 BR BKN001 00/M00 Q1012 
EGSS 210050Z AUTO 29005KT 2500 BR BKN002 00/M01 Q1012   
EGSS 210020Z AUTO 28004KT 250V320 3000 BR BKN003 00/M00 Q1011   
EGSS 202350Z AUTO 30005KT 270V330 4300 BR OVC004 01/00 Q1011
EGSS 202320Z AUTO 32005KT 4900 BR OVC004 01/00 Q1010
EGSS 202250Z AUTO 33007KT 5000 BR OVC004 02/01 Q1009
EGSS 202220Z AUTO 32006KT 6000 OVC004 02/01 Q1008   
EGSS 202150Z AUTO 33006KT 6000 OVC003 02/01 Q1008   
EGSS 202120Z AUTO 33006KT 6000 OVC003 02/01 Q1007   
EGSS 202050Z AUTO 33007KT 7000 BKN003 01/01 Q1007   
EGSS 202020Z AUTO 33006KT 5000 BR BKN003 BKN028 01/01 Q1006 
EGSS 201950Z AUTO 34006KT 7000 OVC003 01/01 Q1005   
EGSS 201920Z AUTO 36007KT 330V030 9000 OVC003 02/01 Q1004   
EGSS 201850Z AUTO 35007KT 6000 OVC003 02/01 Q1003   
EGSS 201820Z AUTO 36007KT 7000 OVC003 02/01 Q1003   
EGSS 201750Z AUTO 36007KT 9999 OVC003 02/01 Q1002   
EGSS 201720Z AUTO 02006KT 8000 OVC003 01/01 Q1001